sensor_id;sensor_type;location;lat;lon;timestamp;pressure;altitude;pressure_sealevel;temperature;humidity
15529;BME280;7866;52.280;9.500;2023-09-12T00:02:49;100042.91;;;23.17;76.80
15529;BME280;7866;52.280;9.500;2023-09-12T00:07:51;100049.59;;;22.99;77.60
15529;BME280;7866;52.280;9.500;2023-09-12T00:12:55;100034.84;;;22.78;77.86
15529;BME280;7866;52.280;9.500;2023-09-12T00:17:57;100029.50;;;22.61;78.61
15529;BME280;7866;52.280;9.500;2023-09-12T00:22:58;100025.56;;;22.52;79.52
15529;BME280;7866;52.280;9.500;2023-09-12T00:28:01;100010.78;;;22.48;79.97
15529;BME280;7866;52.280;9.500;2023-09-12T00:33:04;100002.56;;;22.43;79.68
15529;BME280;7866;52.280;9.500;2023-09-12T00:38:05;99994.59;;;22.41;79.68
15529;BME280;7866;52.280;9.500;2023-09-12T00:43:08;99986.88;;;22.33;80.37
15529;BME280;7866;52.280;9.500;2023-09-12T00:48:12;99976.47;;;22.08;80.85
15529;BME280;7866;52.280;9.500;2023-09-12T00:53:15;99973.78;;;21.91;82.45
15529;BME280;7866;52.280;9.500;2023-09-12T00:58:18;99973.03;;;21.96;81.88
15529;BME280;7866;52.280;9.500;2023-09-12T01:03:20;99968.56;;;21.89;82.38
15529;BME280;7866;52.280;9.500;2023-09-12T01:08:21;99975.00;;;21.78;83.05
15529;BME280;7866;52.280;9.500;2023-09-12T01:13:25;99967.97;;;21.65;83.56
15529;BME280;7866;52.280;9.500;2023-09-12T01:18:26;99965.03;;;21.67;83.02
15529;BME280;7866;52.280;9.500;2023-09-12T01:23:39;99970.22;;;21.69;82.89
15529;BME280;7866;52.280;9.500;2023-09-12T01:28:49;99968.19;;;21.59;83.13
15529;BME280;7866;52.280;9.500;2023-09-12T01:33:55;99974.44;;;21.59;83.46
15529;BME280;7866;52.280;9.500;2023-09-12T01:38:56;99969.50;;;21.56;83.11
15529;BME280;7866;52.280;9.500;2023-09-12T01:44:00;99985.19;;;21.49;83.21
15529;BME280;7866;52.280;9.500;2023-09-12T01:49:04;99988.94;;;21.43;84.07
15529;BME280;7866;52.280;9.500;2023-09-12T01:54:07;99984.59;;;21.30;83.88
15529;BME280;7866;52.280;9.500;2023-09-12T01:59:10;99994.59;;;21.25;84.24
15529;BME280;7866;52.280;9.500;2023-09-12T02:04:12;99998.97;;;21.09;85.19
15529;BME280;7866;52.280;9.500;2023-09-12T02:09:14;100005.81;;;21.11;85.48
15529;BME280;7866;52.280;9.500;2023-09-12T02:14:17;100016.59;;;21.06;85.62
15529;BME280;7866;52.280;9.500;2023-09-12T02:19:19;100043.53;;;21.03;86.23
15529;BME280;7866;52.280;9.500;2023-09-12T02:24:20;100071.25;;;21.16;85.26
15529;BME280;7866;52.280;9.500;2023-09-12T02:29:23;100052.91;;;21.40;85.23
15529;BME280;7866;52.280;9.500;2023-09-12T02:34:25;100037.88;;;21.55;83.92
15529;BME280;7866;52.280;9.500;2023-09-12T02:39:27;100039.84;;;21.59;83.25
15529;BME280;7866;52.280;9.500;2023-09-12T02:44:30;100049.28;;;21.52;83.46
15529;BME280;7866;52.280;9.500;2023-09-12T02:49:31;100041.09;;;21.52;84.10
15529;BME280;7866;52.280;9.500;2023-09-12T02:54:33;100034.44;;;21.43;84.58
15529;BME280;7866;52.280;9.500;2023-09-12T02:59:36;100017.88;;;21.49;84.31
15529;BME280;7866;52.280;9.500;2023-09-12T03:04:38;100013.78;;;21.47;83.99
15529;BME280;7866;52.280;9.500;2023-09-12T03:09:39;100028.09;;;21.25;84.74
15529;BME280;7866;52.280;9.500;2023-09-12T03:14:42;100016.38;;;21.25;85.47
15529;BME280;7866;52.280;9.500;2023-09-12T03:19:44;100023.25;;;21.27;85.67
15529;BME280;7866;52.280;9.500;2023-09-12T03:24:46;100043.53;;;21.20;85.90
15529;BME280;7866;52.280;9.500;2023-09-12T03:29:49;100080.34;;;21.22;86.31
15529;BME280;7866;52.280;9.500;2023-09-12T03:34:50;100104.00;;;21.33;85.57
15529;BME280;7866;52.280;9.500;2023-09-12T03:39:52;100109.22;;;21.52;86.19
15529;BME280;7866;52.280;9.500;2023-09-12T03:44:55;100095.75;;;21.62;84.64
15529;BME280;7866;52.280;9.500;2023-09-12T03:49:56;100087.09;;;21.65;84.72
15529;BME280;7866;52.280;9.500;2023-09-12T03:54:58;100061.06;;;21.57;85.63
15529;BME280;7866;52.280;9.500;2023-09-12T04:00:02;100059.69;;;21.26;87.68
15529;BME280;7866;52.280;9.500;2023-09-12T04:05:06;100033.53;;;21.25;88.50
15529;BME280;7866;52.280;9.500;2023-09-12T04:10:09;100039.06;;;21.13;89.44
15529;BME280;7866;52.280;9.500;2023-09-12T04:15:12;100027.75;;;21.22;89.53
15529;BME280;7866;52.280;9.500;2023-09-12T04:20:14;100032.22;;;21.11;90.09
15529;BME280;7866;52.280;9.500;2023-09-12T04:25:16;100018.03;;;21.09;90.42
15529;BME280;7866;52.280;9.500;2023-09-12T04:30:21;100027.13;;;21.14;90.08
15529;BME280;7866;52.280;9.500;2023-09-12T04:35:23;100030.41;;;21.00;90.55
15529;BME280;7866;52.280;9.500;2023-09-12T04:40:25;100026.03;;;20.99;91.23
15529;BME280;7866;52.280;9.500;2023-09-12T04:45:28;100029.16;;;20.90;91.11
15529;BME280;7866;52.280;9.500;2023-09-12T04:50:30;100018.34;;;20.96;91.25
15529;BME280;7866;52.280;9.500;2023-09-12T04:55:31;100018.91;;;20.98;91.66
15529;BME280;7866;52.280;9.500;2023-09-12T05:00:34;100037.53;;;20.89;91.51
15529;BME280;7866;52.280;9.500;2023-09-12T05:05:36;100039.19;;;20.90;91.75
15529;BME280;7866;52.280;9.500;2023-09-12T05:10:38;100053.16;;;20.65;92.77
15529;BME280;7866;52.280;9.500;2023-09-12T05:15:41;100059.97;;;20.79;92.49
15529;BME280;7866;52.280;9.500;2023-09-12T05:20:43;100046.44;;;20.84;91.41
15529;BME280;7866;52.280;9.500;2023-09-12T05:25:44;100062.19;;;20.82;91.38
15529;BME280;7866;52.280;9.500;2023-09-12T05:30:47;100057.41;;;20.89;90.61
15529;BME280;7866;52.280;9.500;2023-09-12T05:35:49;100127.28;;;20.84;91.50
15529;BME280;7866;52.280;9.500;2023-09-12T05:40:50;100081.16;;;20.77;92.31
15529;BME280;7866;52.280;9.500;2023-09-12T05:45:53;100108.41;;;20.65;92.24
15529;BME280;7866;52.280;9.500;2023-09-12T05:50:56;100149.13;;;20.49;94.20
15529;BME280;7866;52.280;9.500;2023-09-12T05:55:58;100096.50;;;20.31;95.86
15529;BME280;7866;52.280;9.500;2023-09-12T06:01:00;100093.66;;;20.26;96.27
15529;BME280;7866;52.280;9.500;2023-09-12T06:06:03;100073.81;;;20.02;96.71
15529;BME280;7866;52.280;9.500;2023-09-12T06:11:05;100038.03;;;20.05;95.94
15529;BME280;7866;52.280;9.500;2023-09-12T06:16:08;100023.72;;;19.86;95.13
15529;BME280;7866;52.280;9.500;2023-09-12T06:21:09;100037.31;;;19.86;93.91
15529;BME280;7866;52.280;9.500;2023-09-12T06:26:11;100034.13;;;20.01;94.09
15529;BME280;7866;52.280;9.500;2023-09-12T06:31:14;100034.47;;;20.16;93.37
15529;BME280;7866;52.280;9.500;2023-09-12T06:36:15;100025.69;;;20.14;93.69
15529;BME280;7866;52.280;9.500;2023-09-12T06:41:19;100029.75;;;20.12;93.53
15529;BME280;7866;52.280;9.500;2023-09-12T06:46:22;100024.75;;;20.21;93.53
15529;BME280;7866;52.280;9.500;2023-09-12T06:51:24;100007.22;;;20.28;93.68
15529;BME280;7866;52.280;9.500;2023-09-12T06:56:26;99990.28;;;20.38;93.49
15529;BME280;7866;52.280;9.500;2023-09-12T07:01:29;99969.84;;;20.35;93.26
15529;BME280;7866;52.280;9.500;2023-09-12T07:06:30;99963.25;;;20.31;92.92
15529;BME280;7866;52.280;9.500;2023-09-12T07:11:33;99959.50;;;20.78;92.36
15529;BME280;7866;52.280;9.500;2023-09-12T07:16:36;99953.00;;;20.96;91.60
15529;BME280;7866;52.280;9.500;2023-09-12T07:21:37;99982.94;;;20.96;91.66
15529;BME280;7866;52.280;9.500;2023-09-12T07:26:39;99984.03;;;20.95;91.46
15529;BME280;7866;52.280;9.500;2023-09-12T07:31:42;99980.03;;;21.02;91.03
15529;BME280;7866;52.280;9.500;2023-09-12T07:36:44;99983.06;;;21.34;90.43
15529;BME280;7866;52.280;9.500;2023-09-12T07:41:45;99975.09;;;21.50;89.16
15529;BME280;7866;52.280;9.500;2023-09-12T07:46:48;99971.75;;;21.81;88.63
15529;BME280;7866;52.280;9.500;2023-09-12T07:51:50;100006.19;;;21.87;88.55
15529;BME280;7866;52.280;9.500;2023-09-12T07:56:51;100039.53;;;21.56;89.63
15529;BME280;7866;52.280;9.500;2023-09-12T08:01:54;100087.25;;;21.42;92.29
15529;BME280;7866;52.280;9.500;2023-09-12T08:06:56;100092.91;;;21.23;92.87
15529;BME280;7866;52.280;9.500;2023-09-12T08:11:58;100117.16;;;21.25;92.26
15529;BME280;7866;52.280;9.500;2023-09-12T08:17:00;100144.06;;;21.21;92.55
15529;BME280;7866;52.280;9.500;2023-09-12T08:22:03;100149.41;;;21.16;92.13
15529;BME280;7866;52.280;9.500;2023-09-12T08:27:05;100161.81;;;21.24;93.05
15529;BME280;7866;52.280;9.500;2023-09-12T08:32:08;100164.06;;;21.27;92.92
15529;BME280;7866;52.280;9.500;2023-09-12T08:37:10;100176.75;;;21.21;92.61
15529;BME280;7866;52.280;9.500;2023-09-12T08:42:13;100183.25;;;20.91;92.14
15529;BME280;7866;52.280;9.500;2023-09-12T08:47:17;100180.50;;;21.03;91.36
15529;BME280;7866;52.280;9.500;2023-09-12T08:52:20;100185.72;;;20.93;91.73
15529;BME280;7866;52.280;9.500;2023-09-12T08:57:22;100173.13;;;20.75;91.37
15529;BME280;7866;52.280;9.500;2023-09-12T09:02:25;100194.63;;;20.77;91.98
15529;BME280;7866;52.280;9.500;2023-09-12T09:07:27;100162.13;;;20.58;92.16
15529;BME280;7866;52.280;9.500;2023-09-12T09:12:30;100223.66;;;20.71;92.29
15529;BME280;7866;52.280;9.500;2023-09-12T09:17:33;100244.91;;;20.27;93.78
15529;BME280;7866;52.280;9.500;2023-09-12T09:22:35;100255.66;;;20.34;94.96
15529;BME280;7866;52.280;9.500;2023-09-12T09:27:37;100219.84;;;20.37;95.33
15529;BME280;7866;52.280;9.500;2023-09-12T09:32:40;100243.38;;;20.31;95.16
15529;BME280;7866;52.280;9.500;2023-09-12T09:37:41;100231.66;;;20.19;95.59
15529;BME280;7866;52.280;9.500;2023-09-12T09:42:44;100233.88;;;20.10;97.01
15529;BME280;7866;52.280;9.500;2023-09-12T09:47:49;100204.47;;;20.07;97.20
15529;BME280;7866;52.280;9.500;2023-09-12T09:52:53;100230.81;;;20.18;97.06
15529;BME280;7866;52.280;9.500;2023-09-12T09:57:55;100229.53;;;20.21;96.76
15529;BME280;7866;52.280;9.500;2023-09-12T10:02:59;100212.28;;;20.15;97.07
15529;BME280;7866;52.280;9.500;2023-09-12T10:08:02;100195.00;;;20.33;96.13
15529;BME280;7866;52.280;9.500;2023-09-12T10:13:05;100187.91;;;20.44;95.36
15529;BME280;7866;52.280;9.500;2023-09-12T10:18:14;100200.09;;;20.53;95.03
15529;BME280;7866;52.280;9.500;2023-09-12T10:23:19;100143.78;;;20.65;94.92
15529;BME280;7866;52.280;9.500;2023-09-12T10:28:21;100159.50;;;20.75;94.02
15529;BME280;7866;52.280;9.500;2023-09-12T10:33:25;100167.06;;;20.73;93.81
15529;BME280;7866;52.280;9.500;2023-09-12T10:38:32;100149.00;;;20.67;93.95
15529;BME280;7866;52.280;9.500;2023-09-12T10:43:35;100167.09;;;20.61;94.97
15529;BME280;7866;52.280;9.500;2023-09-12T10:48:38;100147.22;;;20.61;95.73
15529;BME280;7866;52.280;9.500;2023-09-12T10:53:45;100158.56;;;20.70;95.12
15529;BME280;7866;52.280;9.500;2023-09-12T10:59:12;100195.72;;;20.64;95.50
15529;BME280;7866;52.280;9.500;2023-09-12T11:04:39;100184.50;;;20.60;95.90
15529;BME280;7866;52.280;9.500;2023-09-12T11:09:41;100211.69;;;20.60;96.65
15529;BME280;7866;52.280;9.500;2023-09-12T11:15:08;100215.59;;;20.76;95.69
15529;BME280;7866;52.280;9.500;2023-09-12T11:20:12;100214.41;;;20.72;96.55
15529;BME280;7866;52.280;9.500;2023-09-12T11:25:16;100214.97;;;20.74;96.35
15529;BME280;7866;52.280;9.500;2023-09-12T11:30:19;100227.09;;;20.55;96.89
15529;BME280;7866;52.280;9.500;2023-09-12T11:35:23;100233.94;;;20.57;96.96
15529;BME280;7866;52.280;9.500;2023-09-12T11:40:41;100199.72;;;20.38;97.71
15529;BME280;7866;52.280;9.500;2023-09-12T11:45:44;100147.84;;;20.28;98.60
15529;BME280;7866;52.280;9.500;2023-09-12T11:50:53;100120.75;;;20.21;98.75
15529;BME280;7866;52.280;9.500;2023-09-12T11:55:57;100129.03;;;20.14;99.00
15529;BME280;7866;52.280;9.500;2023-09-12T12:00:59;100125.72;;;20.12;98.70
15529;BME280;7866;52.280;9.500;2023-09-12T12:06:02;100122.53;;;20.15;98.79
15529;BME280;7866;52.280;9.500;2023-09-12T12:11:06;100111.53;;;19.99;98.42
15529;BME280;7866;52.280;9.500;2023-09-12T12:16:14;100116.38;;;20.32;98.49
15529;BME280;7866;52.280;9.500;2023-09-12T12:21:18;100106.66;;;20.48;96.73
15529;BME280;7866;52.280;9.500;2023-09-12T12:26:19;100093.78;;;20.55;96.18
15529;BME280;7866;52.280;9.500;2023-09-12T12:31:21;100086.78;;;20.47;95.98
15529;BME280;7866;52.280;9.500;2023-09-12T12:36:26;100090.69;;;20.63;95.94
15529;BME280;7866;52.280;9.500;2023-09-12T12:41:29;100100.41;;;20.59;96.74
15529;BME280;7866;52.280;9.500;2023-09-12T12:46:31;100095.69;;;20.83;97.12
15529;BME280;7866;52.280;9.500;2023-09-12T12:51:34;100086.69;;;21.11;95.50
15529;BME280;7866;52.280;9.500;2023-09-12T12:56:35;100083.88;;;21.51;94.36
15529;BME280;7866;52.280;9.500;2023-09-12T13:01:38;100074.13;;;21.55;92.56
15529;BME280;7866;52.280;9.500;2023-09-12T13:06:41;100065.44;;;21.75;90.31
15529;BME280;7866;52.280;9.500;2023-09-12T13:11:43;100059.47;;;21.95;87.36
15529;BME280;7866;52.280;9.500;2023-09-12T13:16:44;100058.28;;;22.08;86.30
15529;BME280;7866;52.280;9.500;2023-09-12T13:21:47;100048.28;;;22.13;86.43
15529;BME280;7866;52.280;9.500;2023-09-12T13:26:50;100060.09;;;22.63;85.87
15529;BME280;7866;52.280;9.500;2023-09-12T13:31:51;100059.59;;;22.66;86.69
15529;BME280;7866;52.280;9.500;2023-09-12T13:36:54;100047.69;;;22.99;87.44
15529;BME280;7866;52.280;9.500;2023-09-12T13:41:57;100049.19;;;23.17;87.17
15529;BME280;7866;52.280;9.500;2023-09-12T13:47:02;100043.81;;;23.22;86.12
15529;BME280;7866;52.280;9.500;2023-09-12T13:52:05;100048.06;;;23.13;85.81
15529;BME280;7866;52.280;9.500;2023-09-12T13:57:07;100049.63;;;23.31;86.56
15529;BME280;7866;52.280;9.500;2023-09-12T14:02:08;100052.66;;;23.34;85.82
15529;BME280;7866;52.280;9.500;2023-09-12T14:07:11;100052.41;;;23.09;85.46
15529;BME280;7866;52.280;9.500;2023-09-12T14:12:13;100062.16;;;23.27;84.18
15529;BME280;7866;52.280;9.500;2023-09-12T14:17:15;100056.50;;;23.39;83.16
15529;BME280;7866;52.280;9.500;2023-09-12T14:22:18;100066.22;;;23.56;82.98
15529;BME280;7866;52.280;9.500;2023-09-12T14:27:19;100070.22;;;23.44;83.94
15529;BME280;7866;52.280;9.500;2023-09-12T14:32:21;100070.75;;;23.46;82.38
15529;BME280;7866;52.280;9.500;2023-09-12T14:37:24;100068.94;;;23.56;83.67
15529;BME280;7866;52.280;9.500;2023-09-12T14:42:27;100061.56;;;23.57;81.99
15529;BME280;7866;52.280;9.500;2023-09-12T14:47:29;100055.06;;;23.31;83.44
15529;BME280;7866;52.280;9.500;2023-09-12T14:52:34;100064.31;;;22.98;87.43
15529;BME280;7866;52.280;9.500;2023-09-12T14:57:37;100051.47;;;23.25;88.85
15529;BME280;7866;52.280;9.500;2023-09-12T15:02:39;100050.25;;;23.11;89.10
15529;BME280;7866;52.280;9.500;2023-09-12T15:07:43;100049.13;;;23.07;89.46
15529;BME280;7866;52.280;9.500;2023-09-12T15:12:45;100048.03;;;23.08;89.05
15529;BME280;7866;52.280;9.500;2023-09-12T15:17:46;100044.69;;;23.01;91.02
15529;BME280;7866;52.280;9.500;2023-09-12T15:22:49;100049.59;;;22.99;91.47
15529;BME280;7866;52.280;9.500;2023-09-12T15:27:51;100042.56;;;22.86;91.68
15529;BME280;7866;52.280;9.500;2023-09-12T15:32:53;100035.06;;;22.71;93.11
15529;BME280;7866;52.280;9.500;2023-09-12T15:37:55;100043.50;;;22.92;93.47
15529;BME280;7866;52.280;9.500;2023-09-12T15:42:57;100042.53;;;23.03;91.92
15529;BME280;7866;52.280;9.500;2023-09-12T15:47:59;100045.97;;;22.93;90.66
15529;BME280;7866;52.280;9.500;2023-09-12T15:53:02;100045.88;;;22.88;90.76
15529;BME280;7866;52.280;9.500;2023-09-12T15:58:03;100025.78;;;22.72;90.23
15529;BME280;7866;52.280;9.500;2023-09-12T16:03:05;100030.56;;;22.60;89.59
15529;BME280;7866;52.280;9.500;2023-09-12T16:08:08;100031.72;;;22.42;89.59
15529;BME280;7866;52.280;9.500;2023-09-12T16:13:11;100026.66;;;22.51;89.20
15529;BME280;7866;52.280;9.500;2023-09-12T16:18:13;100023.41;;;22.54;88.67
15529;BME280;7866;52.280;9.500;2023-09-12T16:23:16;100004.69;;;22.41;88.62
15529;BME280;7866;52.280;9.500;2023-09-12T16:28:19;100009.16;;;22.47;88.54
15529;BME280;7866;52.280;9.500;2023-09-12T16:33:23;100008.50;;;22.40;88.60
15529;BME280;7866;52.280;9.500;2023-09-12T16:38:26;100013.53;;;22.48;88.75
15529;BME280;7866;52.280;9.500;2023-09-12T16:43:28;100028.50;;;22.45;88.22
15529;BME280;7866;52.280;9.500;2023-09-12T16:48:30;100018.25;;;22.30;88.80
15529;BME280;7866;52.280;9.500;2023-09-12T16:53:33;100028.69;;;22.17;89.54
15529;BME280;7866;52.280;9.500;2023-09-12T16:58:34;100026.97;;;22.10;89.48
15529;BME280;7866;52.280;9.500;2023-09-12T17:03:36;100033.91;;;22.01;90.17
15529;BME280;7866;52.280;9.500;2023-09-12T17:08:39;100043.28;;;21.88;90.02
15529;BME280;7866;52.280;9.500;2023-09-12T17:13:41;100048.41;;;21.85;89.83
15529;BME280;7866;52.280;9.500;2023-09-12T17:18:42;100043.22;;;21.83;89.98
15529;BME280;7866;52.280;9.500;2023-09-12T17:23:45;100039.41;;;21.84;90.11
15529;BME280;7866;52.280;9.500;2023-09-12T17:28:47;100043.44;;;21.82;90.00
15529;BME280;7866;52.280;9.500;2023-09-12T17:33:48;100046.59;;;21.74;90.26
15529;BME280;7866;52.280;9.500;2023-09-12T17:38:51;100040.84;;;21.53;92.76
15529;BME280;7866;52.280;9.500;2023-09-12T17:43:53;100034.66;;;21.41;94.06
15529;BME280;7866;52.280;9.500;2023-09-12T17:48:55;100045.22;;;21.37;94.55
15529;BME280;7866;52.280;9.500;2023-09-12T17:53:58;100040.84;;;21.36;94.86
15529;BME280;7866;52.280;9.500;2023-09-12T17:58:59;100058.75;;;21.32;95.33
15529;BME280;7866;52.280;9.500;2023-09-12T18:04:02;100060.78;;;21.25;96.14
15529;BME280;7866;52.280;9.500;2023-09-12T18:09:05;100073.16;;;21.16;96.42
15529;BME280;7866;52.280;9.500;2023-09-12T18:14:06;100067.34;;;20.96;97.46
15529;BME280;7866;52.280;9.500;2023-09-12T18:19:08;100073.78;;;21.06;98.25
15529;BME280;7866;52.280;9.500;2023-09-12T18:24:11;100065.13;;;21.09;97.45
15529;BME280;7866;52.280;9.500;2023-09-12T18:29:14;100070.97;;;21.01;97.56
15529;BME280;7866;52.280;9.500;2023-09-12T18:34:16;100074.34;;;20.91;97.39
15529;BME280;7866;52.280;9.500;2023-09-12T18:39:19;100059.84;;;20.74;98.51
15529;BME280;7866;52.280;9.500;2023-09-12T18:44:21;100076.53;;;20.78;98.88
15529;BME280;7866;52.280;9.500;2023-09-12T18:49:23;100069.88;;;20.85;98.49
15529;BME280;7866;52.280;9.500;2023-09-12T18:54:26;100068.97;;;20.80;98.39
15529;BME280;7866;52.280;9.500;2023-09-12T18:59:28;100067.53;;;20.77;98.09
15529;BME280;7866;52.280;9.500;2023-09-12T19:04:30;100058.81;;;20.75;98.16
15529;BME280;7866;52.280;9.500;2023-09-12T19:09:35;100064.06;;;20.53;99.36
15529;BME280;7866;52.280;9.500;2023-09-12T19:14:36;100064.91;;;20.54;99.75
15529;BME280;7866;52.280;9.500;2023-09-12T19:19:38;100053.97;;;20.65;98.98
15529;BME280;7866;52.280;9.500;2023-09-12T19:24:41;100035.78;;;20.54;99.91
15529;BME280;7866;52.280;9.500;2023-09-12T19:29:47;100055.56;;;20.50;99.94
15529;BME280;7866;52.280;9.500;2023-09-12T19:34:49;100039.97;;;20.33;100.00
15529;BME280;7866;52.280;9.500;2023-09-12T19:39:52;100052.13;;;20.42;100.00
15529;BME280;7866;52.280;9.500;2023-09-12T19:44:53;100060.78;;;20.39;100.00
15529;BME280;7866;52.280;9.500;2023-09-12T19:49:55;100061.81;;;20.50;100.00
15529;BME280;7866;52.280;9.500;2023-09-12T19:54:58;100065.84;;;20.48;100.00
15529;BME280;7866;52.280;9.500;2023-09-12T20:00:00;100073.69;;;20.32;100.00
15529;BME280;7866;52.280;9.500;2023-09-12T20:05:02;100064.25;;;20.23;100.00
15529;BME280;7866;52.280;9.500;2023-09-12T20:10:06;100048.00;;;20.40;100.00
15529;BME280;7866;52.280;9.500;2023-09-12T20:15:08;100044.34;;;20.34;100.00
15529;BME280;7866;52.280;9.500;2023-09-12T20:20:11;100023.88;;;20.43;100.00
15529;BME280;7866;52.280;9.500;2023-09-12T20:25:14;100021.63;;;20.40;99.67
15529;BME280;7866;52.280;9.500;2023-09-12T20:30:16;100030.50;;;20.36;100.00
15529;BME280;7866;52.280;9.500;2023-09-12T20:35:18;100051.13;;;20.20;100.00
15529;BME280;7866;52.280;9.500;2023-09-12T20:40:21;100061.41;;;20.18;100.00
15529;BME280;7866;52.280;9.500;2023-09-12T20:45:22;100057.38;;;20.21;100.00
15529;BME280;7866;52.280;9.500;2023-09-12T20:50:24;100043.78;;;20.21;100.00
15529;BME280;7866;52.280;9.500;2023-09-12T20:55:33;100038.84;;;20.06;100.00
15529;BME280;7866;52.280;9.500;2023-09-12T21:00:36;100017.91;;;20.06;100.00
15529;BME280;7866;52.280;9.500;2023-09-12T21:05:38;99996.50;;;20.10;100.00
15529;BME280;7866;52.280;9.500;2023-09-12T21:10:41;100011.66;;;20.06;100.00
15529;BME280;7866;52.280;9.500;2023-09-12T21:15:44;99985.44;;;20.00;100.00
15529;BME280;7866;52.280;9.500;2023-09-12T21:20:45;99992.06;;;20.04;100.00
15529;BME280;7866;52.280;9.500;2023-09-12T21:25:49;100007.06;;;19.94;100.00
15529;BME280;7866;52.280;9.500;2023-09-12T21:30:52;99985.53;;;20.05;100.00
15529;BME280;7866;52.280;9.500;2023-09-12T21:35:54;100012.50;;;19.94;100.00
15529;BME280;7866;52.280;9.500;2023-09-12T21:40:57;100036.84;;;19.66;100.00
15529;BME280;7866;52.280;9.500;2023-09-12T21:45:59;100022.81;;;19.81;100.00
15529;BME280;7866;52.280;9.500;2023-09-12T21:51:00;99979.56;;;19.79;100.00
15529;BME280;7866;52.280;9.500;2023-09-12T21:56:03;99950.13;;;19.88;100.00
15529;BME280;7866;52.280;9.500;2023-09-12T22:01:05;99932.66;;;19.84;100.00
15529;BME280;7866;52.280;9.500;2023-09-12T22:06:07;99970.22;;;19.87;100.00
15529;BME280;7866;52.280;9.500;2023-09-12T22:11:13;100025.63;;;19.74;100.00
15529;BME280;7866;52.280;9.500;2023-09-12T22:16:15;100001.31;;;19.67;100.00
15529;BME280;7866;52.280;9.500;2023-09-12T22:21:16;99977.78;;;19.73;100.00
15529;BME280;7866;52.280;9.500;2023-09-12T22:26:20;100007.13;;;19.71;100.00
15529;BME280;7866;52.280;9.500;2023-09-12T22:31:22;100001.78;;;19.64;100.00
15529;BME280;7866;52.280;9.500;2023-09-12T22:36:23;99973.19;;;19.74;100.00
15529;BME280;7866;52.280;9.500;2023-09-12T22:41:26;99993.75;;;19.69;100.00
15529;BME280;7866;52.280;9.500;2023-09-12T22:46:28;100008.94;;;19.59;100.00
15529;BME280;7866;52.280;9.500;2023-09-12T22:51:30;99944.00;;;19.45;100.00
15529;BME280;7866;52.280;9.500;2023-09-12T22:56:33;99965.63;;;19.52;100.00
15529;BME280;7866;52.280;9.500;2023-09-12T23:01:35;99961.25;;;19.39;100.00
15529;BME280;7866;52.280;9.500;2023-09-12T23:06:36;99939.91;;;19.43;100.00
15529;BME280;7866;52.280;9.500;2023-09-12T23:11:39;99964.44;;;19.48;100.00
15529;BME280;7866;52.280;9.500;2023-09-12T23:16:41;99968.91;;;19.54;100.00
15529;BME280;7866;52.280;9.500;2023-09-12T23:21:43;99941.56;;;19.67;100.00
15529;BME280;7866;52.280;9.500;2023-09-12T23:26:46;99915.09;;;19.63;100.00
15529;BME280;7866;52.280;9.500;2023-09-12T23:31:49;99888.41;;;19.48;100.00
15529;BME280;7866;52.280;9.500;2023-09-12T23:36:50;99909.66;;;19.51;100.00
15529;BME280;7866;52.280;9.500;2023-09-12T23:41:53;99929.25;;;19.53;100.00
15529;BME280;7866;52.280;9.500;2023-09-12T23:46:55;99947.44;;;19.53;100.00
15529;BME280;7866;52.280;9.500;2023-09-12T23:51:56;99959.22;;;19.58;100.00
15529;BME280;7866;52.280;9.500;2023-09-12T23:56:59;99948.13;;;19.60;100.00
